sensor_id;sensor_type;location;lat;lon;timestamp;P1;durP1;ratioP1;P2;durP2;ratioP2
23181;SDS011;11759;51.282;6.642;2024-01-27T00:02:11;17.02;;;3.75;;
23181;SDS011;11759;51.282;6.642;2024-01-27T00:04:38;17.88;;;4.05;;
23181;SDS011;11759;51.282;6.642;2024-01-27T00:07:05;20.58;;;3.83;;
23181;SDS011;11759;51.282;6.642;2024-01-27T00:09:31;30.23;;;4.07;;
23181;SDS011;11759;51.282;6.642;2024-01-27T00:11:58;20.50;;;4.47;;
23181;SDS011;11759;51.282;6.642;2024-01-27T00:14:25;15.70;;;3.83;;
23181;SDS011;11759;51.282;6.642;2024-01-27T00:16:51;16.73;;;4.25;;
23181;SDS011;11759;51.282;6.642;2024-01-27T00:19:18;23.58;;;3.88;;
23181;SDS011;11759;51.282;6.642;2024-01-27T00:21:45;13.77;;;3.83;;
23181;SDS011;11759;51.282;6.642;2024-01-27T00:24:13;17.17;;;5.07;;
23181;SDS011;11759;51.282;6.642;2024-01-27T00:26:40;20.95;;;3.85;;
23181;SDS011;11759;51.282;6.642;2024-01-27T00:29:06;17.50;;;4.15;;
23181;SDS011;11759;51.282;6.642;2024-01-27T00:31:33;19.73;;;4.53;;
23181;SDS011;11759;51.282;6.642;2024-01-27T00:34:00;15.40;;;3.88;;
23181;SDS011;11759;51.282;6.642;2024-01-27T00:36:27;27.17;;;4.53;;
23181;SDS011;11759;51.282;6.642;2024-01-27T00:38:54;22.25;;;4.40;;
23181;SDS011;11759;51.282;6.642;2024-01-27T00:41:20;20.00;;;3.97;;
23181;SDS011;11759;51.282;6.642;2024-01-27T00:43:47;31.77;;;3.78;;
23181;SDS011;11759;51.282;6.642;2024-01-27T00:46:14;18.02;;;3.78;;
23181;SDS011;11759;51.282;6.642;2024-01-27T00:48:41;19.08;;;3.97;;
23181;SDS011;11759;51.282;6.642;2024-01-27T00:51:08;16.63;;;4.05;;
23181;SDS011;11759;51.282;6.642;2024-01-27T00:53:34;17.65;;;4.85;;
23181;SDS011;11759;51.282;6.642;2024-01-27T00:56:01;9.20;;;3.78;;
23181;SDS011;11759;51.282;6.642;2024-01-27T00:58:29;12.38;;;3.97;;
23181;SDS011;11759;51.282;6.642;2024-01-27T01:00:55;13.70;;;4.45;;
23181;SDS011;11759;51.282;6.642;2024-01-27T01:03:22;24.75;;;4.28;;
23181;SDS011;11759;51.282;6.642;2024-01-27T01:05:49;14.02;;;3.67;;
23181;SDS011;11759;51.282;6.642;2024-01-27T01:08:16;20.10;;;4.38;;
23181;SDS011;11759;51.282;6.642;2024-01-27T01:10:42;15.88;;;3.95;;
23181;SDS011;11759;51.282;6.642;2024-01-27T01:13:09;13.82;;;4.45;;
23181;SDS011;11759;51.282;6.642;2024-01-27T01:15:36;16.23;;;4.00;;
23181;SDS011;11759;51.282;6.642;2024-01-27T01:18:03;17.50;;;4.30;;
23181;SDS011;11759;51.282;6.642;2024-01-27T01:20:30;19.92;;;4.85;;
23181;SDS011;11759;51.282;6.642;2024-01-27T01:22:58;17.30;;;3.90;;
23181;SDS011;11759;51.282;6.642;2024-01-27T01:25:25;21.65;;;3.83;;
23181;SDS011;11759;51.282;6.642;2024-01-27T01:27:52;18.55;;;4.03;;
23181;SDS011;11759;51.282;6.642;2024-01-27T01:30:19;21.10;;;3.97;;
23181;SDS011;11759;51.282;6.642;2024-01-27T01:32:46;22.73;;;4.13;;
23181;SDS011;11759;51.282;6.642;2024-01-27T01:35:13;20.05;;;4.55;;
23181;SDS011;11759;51.282;6.642;2024-01-27T01:37:39;15.18;;;4.55;;
23181;SDS011;11759;51.282;6.642;2024-01-27T01:40:06;28.90;;;4.50;;
23181;SDS011;11759;51.282;6.642;2024-01-27T01:42:33;20.85;;;4.10;;
23181;SDS011;11759;51.282;6.642;2024-01-27T01:45:00;16.20;;;4.50;;
23181;SDS011;11759;51.282;6.642;2024-01-27T01:47:26;11.60;;;4.47;;
23181;SDS011;11759;51.282;6.642;2024-01-27T01:49:54;20.30;;;4.53;;
23181;SDS011;11759;51.282;6.642;2024-01-27T01:52:22;19.30;;;4.22;;
23181;SDS011;11759;51.282;6.642;2024-01-27T01:54:49;22.73;;;4.55;;
23181;SDS011;11759;51.282;6.642;2024-01-27T01:57:16;20.08;;;4.57;;
23181;SDS011;11759;51.282;6.642;2024-01-27T01:59:43;23.48;;;4.57;;
23181;SDS011;11759;51.282;6.642;2024-01-27T02:02:12;13.63;;;4.03;;
23181;SDS011;11759;51.282;6.642;2024-01-27T02:04:39;16.13;;;4.03;;
23181;SDS011;11759;51.282;6.642;2024-01-27T02:07:09;18.65;;;4.00;;
23181;SDS011;11759;51.282;6.642;2024-01-27T02:09:36;28.67;;;5.05;;
23181;SDS011;11759;51.282;6.642;2024-01-27T02:12:03;15.35;;;4.22;;
23181;SDS011;11759;51.282;6.642;2024-01-27T02:14:31;22.33;;;4.63;;
23181;SDS011;11759;51.282;6.642;2024-01-27T02:16:57;18.23;;;4.03;;
23181;SDS011;11759;51.282;6.642;2024-01-27T02:19:24;27.50;;;6.10;;
23181;SDS011;11759;51.282;6.642;2024-01-27T02:21:51;25.35;;;4.72;;
23181;SDS011;11759;51.282;6.642;2024-01-27T02:24:18;21.73;;;4.40;;
23181;SDS011;11759;51.282;6.642;2024-01-27T02:26:44;14.60;;;4.40;;
23181;SDS011;11759;51.282;6.642;2024-01-27T02:29:11;20.45;;;4.03;;
23181;SDS011;11759;51.282;6.642;2024-01-27T02:31:38;33.47;;;5.10;;
23181;SDS011;11759;51.282;6.642;2024-01-27T02:34:04;17.30;;;4.88;;
23181;SDS011;11759;51.282;6.642;2024-01-27T02:36:31;21.08;;;4.78;;
23181;SDS011;11759;51.282;6.642;2024-01-27T02:38:58;22.08;;;5.10;;
23181;SDS011;11759;51.282;6.642;2024-01-27T02:41:25;18.23;;;4.80;;
23181;SDS011;11759;51.282;6.642;2024-01-27T02:43:51;22.35;;;5.75;;
23181;SDS011;11759;51.282;6.642;2024-01-27T02:46:18;21.73;;;4.80;;
23181;SDS011;11759;51.282;6.642;2024-01-27T02:48:45;18.42;;;5.38;;
23181;SDS011;11759;51.282;6.642;2024-01-27T02:51:12;16.23;;;5.13;;
23181;SDS011;11759;51.282;6.642;2024-01-27T02:53:39;16.38;;;4.82;;
23181;SDS011;11759;51.282;6.642;2024-01-27T02:56:06;16.20;;;4.63;;
23181;SDS011;11759;51.282;6.642;2024-01-27T02:58:34;26.73;;;5.95;;
23181;SDS011;11759;51.282;6.642;2024-01-27T03:01:01;34.38;;;5.30;;
23181;SDS011;11759;51.282;6.642;2024-01-27T03:03:28;28.77;;;5.70;;
23181;SDS011;11759;51.282;6.642;2024-01-27T03:05:55;24.48;;;5.60;;
23181;SDS011;11759;51.282;6.642;2024-01-27T03:08:22;26.27;;;6.00;;
23181;SDS011;11759;51.282;6.642;2024-01-27T03:10:49;20.23;;;5.50;;
23181;SDS011;11759;51.282;6.642;2024-01-27T03:13:15;21.52;;;5.38;;
23181;SDS011;11759;51.282;6.642;2024-01-27T03:15:42;21.52;;;6.57;;
23181;SDS011;11759;51.282;6.642;2024-01-27T03:18:09;17.95;;;5.18;;
23181;SDS011;11759;51.282;6.642;2024-01-27T03:20:36;29.45;;;5.55;;
23181;SDS011;11759;51.282;6.642;2024-01-27T03:23:03;30.52;;;5.95;;
23181;SDS011;11759;51.282;6.642;2024-01-27T03:25:30;29.80;;;5.97;;
23181;SDS011;11759;51.282;6.642;2024-01-27T03:27:56;25.92;;;5.45;;
23181;SDS011;11759;51.282;6.642;2024-01-27T03:30:23;23.42;;;5.50;;
23181;SDS011;11759;51.282;6.642;2024-01-27T03:32:50;33.30;;;6.18;;
23181;SDS011;11759;51.282;6.642;2024-01-27T03:35:17;18.88;;;5.70;;
23181;SDS011;11759;51.282;6.642;2024-01-27T03:37:43;30.23;;;6.63;;
23181;SDS011;11759;51.282;6.642;2024-01-27T03:40:11;23.33;;;6.03;;
23181;SDS011;11759;51.282;6.642;2024-01-27T03:42:38;34.47;;;6.13;;
23181;SDS011;11759;51.282;6.642;2024-01-27T03:45:05;27.60;;;5.55;;
23181;SDS011;11759;51.282;6.642;2024-01-27T03:47:32;23.80;;;5.43;;
23181;SDS011;11759;51.282;6.642;2024-01-27T03:49:59;27.60;;;6.35;;
23181;SDS011;11759;51.282;6.642;2024-01-27T03:52:26;27.02;;;6.18;;
23181;SDS011;11759;51.282;6.642;2024-01-27T03:54:52;33.88;;;6.05;;
23181;SDS011;11759;51.282;6.642;2024-01-27T03:57:19;24.05;;;6.10;;
23181;SDS011;11759;51.282;6.642;2024-01-27T03:59:46;28.65;;;6.13;;
23181;SDS011;11759;51.282;6.642;2024-01-27T04:02:12;28.50;;;6.18;;
23181;SDS011;11759;51.282;6.642;2024-01-27T04:04:39;26.30;;;6.93;;
23181;SDS011;11759;51.282;6.642;2024-01-27T04:07:05;25.92;;;6.50;;
23181;SDS011;11759;51.282;6.642;2024-01-27T04:09:32;26.20;;;6.03;;
23181;SDS011;11759;51.282;6.642;2024-01-27T04:11:59;26.48;;;6.40;;
23181;SDS011;11759;51.282;6.642;2024-01-27T04:14:26;19.67;;;5.75;;
23181;SDS011;11759;51.282;6.642;2024-01-27T04:16:53;28.27;;;6.70;;
23181;SDS011;11759;51.282;6.642;2024-01-27T04:19:20;32.15;;;7.28;;
23181;SDS011;11759;51.282;6.642;2024-01-27T04:21:47;30.70;;;6.10;;
23181;SDS011;11759;51.282;6.642;2024-01-27T04:24:14;22.17;;;6.13;;
23181;SDS011;11759;51.282;6.642;2024-01-27T04:26:40;31.08;;;6.22;;
23181;SDS011;11759;51.282;6.642;2024-01-27T04:29:07;27.65;;;7.03;;
23181;SDS011;11759;51.282;6.642;2024-01-27T04:31:39;17.55;;;5.90;;
23181;SDS011;11759;51.282;6.642;2024-01-27T04:34:06;23.45;;;5.55;;
23181;SDS011;11759;51.282;6.642;2024-01-27T04:36:33;34.03;;;6.60;;
23181;SDS011;11759;51.282;6.642;2024-01-27T04:38:59;21.27;;;6.25;;
23181;SDS011;11759;51.282;6.642;2024-01-27T04:41:26;23.35;;;6.18;;
23181;SDS011;11759;51.282;6.642;2024-01-27T04:43:53;20.38;;;6.60;;
23181;SDS011;11759;51.282;6.642;2024-01-27T04:46:21;20.00;;;5.93;;
23181;SDS011;11759;51.282;6.642;2024-01-27T04:48:48;24.85;;;5.82;;
23181;SDS011;11759;51.282;6.642;2024-01-27T04:51:15;31.95;;;6.20;;
23181;SDS011;11759;51.282;6.642;2024-01-27T04:53:42;24.02;;;6.22;;
23181;SDS011;11759;51.282;6.642;2024-01-27T04:56:09;21.08;;;6.97;;
23181;SDS011;11759;51.282;6.642;2024-01-27T04:58:36;13.52;;;5.97;;
23181;SDS011;11759;51.282;6.642;2024-01-27T05:01:03;24.65;;;6.10;;
23181;SDS011;11759;51.282;6.642;2024-01-27T05:03:30;27.77;;;6.68;;
23181;SDS011;11759;51.282;6.642;2024-01-27T05:05:57;26.55;;;6.10;;
23181;SDS011;11759;51.282;6.642;2024-01-27T05:08:23;22.15;;;6.15;;
23181;SDS011;11759;51.282;6.642;2024-01-27T05:10:50;28.30;;;7.13;;
23181;SDS011;11759;51.282;6.642;2024-01-27T05:13:16;20.38;;;6.05;;
23181;SDS011;11759;51.282;6.642;2024-01-27T05:15:43;27.30;;;6.95;;
23181;SDS011;11759;51.282;6.642;2024-01-27T05:18:10;29.33;;;6.50;;
23181;SDS011;11759;51.282;6.642;2024-01-27T05:20:37;22.25;;;6.22;;
23181;SDS011;11759;51.282;6.642;2024-01-27T05:23:03;24.45;;;6.25;;
23181;SDS011;11759;51.282;6.642;2024-01-27T05:25:30;16.10;;;6.00;;
23181;SDS011;11759;51.282;6.642;2024-01-27T05:27:57;20.30;;;5.88;;
23181;SDS011;11759;51.282;6.642;2024-01-27T05:30:23;23.27;;;6.15;;
23181;SDS011;11759;51.282;6.642;2024-01-27T05:32:50;20.17;;;6.85;;
23181;SDS011;11759;51.282;6.642;2024-01-27T05:35:17;23.70;;;6.53;;
23181;SDS011;11759;51.282;6.642;2024-01-27T05:37:43;23.85;;;6.57;;
23181;SDS011;11759;51.282;6.642;2024-01-27T05:40:10;27.75;;;6.57;;
23181;SDS011;11759;51.282;6.642;2024-01-27T05:42:37;26.95;;;6.50;;
23181;SDS011;11759;51.282;6.642;2024-01-27T05:45:07;23.77;;;6.60;;
23181;SDS011;11759;51.282;6.642;2024-01-27T05:47:34;25.42;;;7.20;;
23181;SDS011;11759;51.282;6.642;2024-01-27T05:50:01;27.15;;;6.75;;
23181;SDS011;11759;51.282;6.642;2024-01-27T05:52:28;19.50;;;5.72;;
23181;SDS011;11759;51.282;6.642;2024-01-27T05:54:54;28.15;;;6.63;;
23181;SDS011;11759;51.282;6.642;2024-01-27T05:57:21;30.77;;;7.13;;
23181;SDS011;11759;51.282;6.642;2024-01-27T05:59:48;22.75;;;6.65;;
23181;SDS011;11759;51.282;6.642;2024-01-27T06:02:15;28.75;;;7.20;;
23181;SDS011;11759;51.282;6.642;2024-01-27T06:04:44;22.40;;;6.53;;
23181;SDS011;11759;51.282;6.642;2024-01-27T06:07:10;28.55;;;6.65;;
23181;SDS011;11759;51.282;6.642;2024-01-27T06:09:37;21.48;;;8.68;;
23181;SDS011;11759;51.282;6.642;2024-01-27T06:12:04;32.78;;;6.72;;
23181;SDS011;11759;51.282;6.642;2024-01-27T06:14:31;26.13;;;7.28;;
23181;SDS011;11759;51.282;6.642;2024-01-27T06:16:58;24.90;;;7.85;;
23181;SDS011;11759;51.282;6.642;2024-01-27T06:19:26;29.73;;;6.97;;
23181;SDS011;11759;51.282;6.642;2024-01-27T06:21:53;26.52;;;7.50;;
23181;SDS011;11759;51.282;6.642;2024-01-27T06:24:20;25.80;;;7.78;;
23181;SDS011;11759;51.282;6.642;2024-01-27T06:26:47;22.13;;;7.57;;
23181;SDS011;11759;51.282;6.642;2024-01-27T06:29:13;33.65;;;7.57;;
23181;SDS011;11759;51.282;6.642;2024-01-27T06:31:40;41.45;;;6.97;;
23181;SDS011;11759;51.282;6.642;2024-01-27T06:34:07;39.30;;;7.85;;
23181;SDS011;11759;51.282;6.642;2024-01-27T06:36:34;34.63;;;8.00;;
23181;SDS011;11759;51.282;6.642;2024-01-27T06:39:01;21.52;;;6.82;;
23181;SDS011;11759;51.282;6.642;2024-01-27T06:41:27;30.00;;;7.05;;
23181;SDS011;11759;51.282;6.642;2024-01-27T06:43:54;36.22;;;7.28;;
23181;SDS011;11759;51.282;6.642;2024-01-27T06:46:21;22.77;;;7.25;;
23181;SDS011;11759;51.282;6.642;2024-01-27T06:48:47;30.52;;;7.72;;
23181;SDS011;11759;51.282;6.642;2024-01-27T06:51:14;36.88;;;7.95;;
23181;SDS011;11759;51.282;6.642;2024-01-27T06:53:41;28.50;;;7.22;;
23181;SDS011;11759;51.282;6.642;2024-01-27T06:56:07;37.90;;;7.72;;
23181;SDS011;11759;51.282;6.642;2024-01-27T06:58:34;35.28;;;7.95;;
23181;SDS011;11759;51.282;6.642;2024-01-27T07:01:03;34.70;;;7.72;;
23181;SDS011;11759;51.282;6.642;2024-01-27T07:03:29;26.95;;;7.07;;
23181;SDS011;11759;51.282;6.642;2024-01-27T07:05:56;35.08;;;7.90;;
23181;SDS011;11759;51.282;6.642;2024-01-27T07:08:27;29.58;;;6.78;;
23181;SDS011;11759;51.282;6.642;2024-01-27T07:10:53;23.92;;;7.18;;
23181;SDS011;11759;51.282;6.642;2024-01-27T07:13:20;32.85;;;8.02;;
23181;SDS011;11759;51.282;6.642;2024-01-27T07:15:47;36.53;;;7.20;;
23181;SDS011;11759;51.282;6.642;2024-01-27T07:18:13;27.25;;;7.97;;
23181;SDS011;11759;51.282;6.642;2024-01-27T07:20:41;30.85;;;7.03;;
23181;SDS011;11759;51.282;6.642;2024-01-27T07:23:08;33.92;;;6.70;;
23181;SDS011;11759;51.282;6.642;2024-01-27T07:25:35;27.42;;;6.60;;
23181;SDS011;11759;51.282;6.642;2024-01-27T07:28:01;30.27;;;7.75;;
23181;SDS011;11759;51.282;6.642;2024-01-27T07:30:28;29.00;;;7.10;;
23181;SDS011;11759;51.282;6.642;2024-01-27T07:32:56;23.45;;;7.50;;
23181;SDS011;11759;51.282;6.642;2024-01-27T07:35:23;26.25;;;6.85;;
23181;SDS011;11759;51.282;6.642;2024-01-27T07:37:50;28.85;;;7.45;;
23181;SDS011;11759;51.282;6.642;2024-01-27T07:40:16;28.35;;;7.07;;
23181;SDS011;11759;51.282;6.642;2024-01-27T07:42:43;20.35;;;7.28;;
23181;SDS011;11759;51.282;6.642;2024-01-27T07:45:10;31.67;;;7.88;;
23181;SDS011;11759;51.282;6.642;2024-01-27T07:47:37;30.33;;;7.30;;
23181;SDS011;11759;51.282;6.642;2024-01-27T07:50:04;27.70;;;8.27;;
23181;SDS011;11759;51.282;6.642;2024-01-27T07:52:31;23.88;;;7.20;;
23181;SDS011;11759;51.282;6.642;2024-01-27T07:54:58;19.95;;;7.00;;
23181;SDS011;11759;51.282;6.642;2024-01-27T07:57:25;28.98;;;6.80;;
23181;SDS011;11759;51.282;6.642;2024-01-27T07:59:52;26.63;;;7.53;;
23181;SDS011;11759;51.282;6.642;2024-01-27T08:02:19;35.25;;;8.85;;
23181;SDS011;11759;51.282;6.642;2024-01-27T08:04:45;27.23;;;7.32;;
23181;SDS011;11759;51.282;6.642;2024-01-27T08:07:12;33.25;;;6.85;;
23181;SDS011;11759;51.282;6.642;2024-01-27T08:09:41;26.50;;;7.22;;
23181;SDS011;11759;51.282;6.642;2024-01-27T08:12:08;27.75;;;6.65;;
23181;SDS011;11759;51.282;6.642;2024-01-27T08:14:34;24.85;;;6.85;;
23181;SDS011;11759;51.282;6.642;2024-01-27T08:17:02;30.95;;;6.35;;
23181;SDS011;11759;51.282;6.642;2024-01-27T08:19:29;39.67;;;9.65;;
23181;SDS011;11759;51.282;6.642;2024-01-27T08:21:56;21.38;;;6.10;;
23181;SDS011;11759;51.282;6.642;2024-01-27T08:24:23;22.45;;;6.82;;
23181;SDS011;11759;51.282;6.642;2024-01-27T08:26:50;25.38;;;6.65;;
23181;SDS011;11759;51.282;6.642;2024-01-27T08:29:17;22.67;;;5.57;;
23181;SDS011;11759;51.282;6.642;2024-01-27T08:31:44;25.13;;;6.55;;
23181;SDS011;11759;51.282;6.642;2024-01-27T08:34:10;27.58;;;4.68;;
23181;SDS011;11759;51.282;6.642;2024-01-27T08:36:39;22.65;;;5.45;;
23181;SDS011;11759;51.282;6.642;2024-01-27T08:39:06;25.08;;;5.93;;
23181;SDS011;11759;51.282;6.642;2024-01-27T08:41:35;27.38;;;5.38;;
23181;SDS011;11759;51.282;6.642;2024-01-27T08:44:02;20.95;;;5.03;;
23181;SDS011;11759;51.282;6.642;2024-01-27T08:46:29;19.83;;;5.32;;
23181;SDS011;11759;51.282;6.642;2024-01-27T08:48:56;24.63;;;5.15;;
23181;SDS011;11759;51.282;6.642;2024-01-27T08:51:22;25.70;;;5.43;;
23181;SDS011;11759;51.282;6.642;2024-01-27T08:53:49;25.77;;;5.28;;
23181;SDS011;11759;51.282;6.642;2024-01-27T08:56:16;20.55;;;4.82;;
23181;SDS011;11759;51.282;6.642;2024-01-27T08:58:44;21.63;;;5.35;;
23181;SDS011;11759;51.282;6.642;2024-01-27T09:01:11;17.73;;;5.15;;
23181;SDS011;11759;51.282;6.642;2024-01-27T09:03:41;20.30;;;5.00;;
23181;SDS011;11759;51.282;6.642;2024-01-27T09:06:08;15.63;;;4.30;;
23181;SDS011;11759;51.282;6.642;2024-01-27T09:08:35;18.80;;;4.80;;
23181;SDS011;11759;51.282;6.642;2024-01-27T09:11:02;23.45;;;5.95;;
23181;SDS011;11759;51.282;6.642;2024-01-27T09:13:29;23.75;;;5.15;;
23181;SDS011;11759;51.282;6.642;2024-01-27T09:15:59;22.20;;;5.22;;
23181;SDS011;11759;51.282;6.642;2024-01-27T09:18:26;18.70;;;5.15;;
23181;SDS011;11759;51.282;6.642;2024-01-27T09:20:54;26.60;;;4.82;;
23181;SDS011;11759;51.282;6.642;2024-01-27T09:23:20;20.88;;;5.45;;
23181;SDS011;11759;51.282;6.642;2024-01-27T09:25:47;22.15;;;5.80;;
23181;SDS011;11759;51.282;6.642;2024-01-27T09:28:14;30.52;;;5.65;;
23181;SDS011;11759;51.282;6.642;2024-01-27T09:30:42;18.33;;;5.10;;
23181;SDS011;11759;51.282;6.642;2024-01-27T09:33:09;24.25;;;5.80;;
23181;SDS011;11759;51.282;6.642;2024-01-27T09:35:35;18.35;;;4.82;;
23181;SDS011;11759;51.282;6.642;2024-01-27T09:38:02;25.02;;;5.18;;
23181;SDS011;11759;51.282;6.642;2024-01-27T09:40:29;20.23;;;5.63;;
23181;SDS011;11759;51.282;6.642;2024-01-27T09:42:56;19.67;;;5.53;;
23181;SDS011;11759;51.282;6.642;2024-01-27T09:45:25;20.73;;;5.10;;
23181;SDS011;11759;51.282;6.642;2024-01-27T09:47:52;21.92;;;4.70;;
23181;SDS011;11759;51.282;6.642;2024-01-27T09:50:20;21.52;;;5.72;;
23181;SDS011;11759;51.282;6.642;2024-01-27T09:52:48;21.13;;;5.35;;
23181;SDS011;11759;51.282;6.642;2024-01-27T09:55:14;26.42;;;5.70;;
23181;SDS011;11759;51.282;6.642;2024-01-27T09:57:41;25.77;;;5.82;;
23181;SDS011;11759;51.282;6.642;2024-01-27T10:00:09;27.63;;;5.82;;
23181;SDS011;11759;51.282;6.642;2024-01-27T10:02:39;19.55;;;5.13;;
23181;SDS011;11759;51.282;6.642;2024-01-27T10:05:08;13.57;;;4.88;;
23181;SDS011;11759;51.282;6.642;2024-01-27T10:07:35;24.88;;;5.53;;
23181;SDS011;11759;51.282;6.642;2024-01-27T10:10:01;17.08;;;4.85;;
23181;SDS011;11759;51.282;6.642;2024-01-27T10:12:28;23.80;;;5.03;;
23181;SDS011;11759;51.282;6.642;2024-01-27T10:14:55;20.65;;;4.97;;
23181;SDS011;11759;51.282;6.642;2024-01-27T10:17:22;24.65;;;4.97;;
23181;SDS011;11759;51.282;6.642;2024-01-27T10:20:01;28.85;;;4.88;;
23181;SDS011;11759;51.282;6.642;2024-01-27T10:22:42;15.98;;;5.03;;
23181;SDS011;11759;51.282;6.642;2024-01-27T10:25:11;21.17;;;4.15;;
23181;SDS011;11759;51.282;6.642;2024-01-27T10:27:38;20.35;;;4.38;;
23181;SDS011;11759;51.282;6.642;2024-01-27T10:30:05;15.77;;;4.32;;
23181;SDS011;11759;51.282;6.642;2024-01-27T10:32:34;16.13;;;4.47;;
23181;SDS011;11759;51.282;6.642;2024-01-27T10:35:05;23.67;;;5.07;;
23181;SDS011;11759;51.282;6.642;2024-01-27T10:37:34;20.02;;;5.03;;
23181;SDS011;11759;51.282;6.642;2024-01-27T10:40:05;21.25;;;5.45;;
23181;SDS011;11759;51.282;6.642;2024-01-27T10:42:39;19.75;;;5.00;;
23181;SDS011;11759;51.282;6.642;2024-01-27T10:45:06;20.73;;;4.70;;
23181;SDS011;11759;51.282;6.642;2024-01-27T10:47:33;19.50;;;4.40;;
23181;SDS011;11759;51.282;6.642;2024-01-27T10:50:00;21.92;;;5.35;;
23181;SDS011;11759;51.282;6.642;2024-01-27T10:52:34;17.63;;;4.82;;
23181;SDS011;11759;51.282;6.642;2024-01-27T10:55:05;24.00;;;5.07;;
23181;SDS011;11759;51.282;6.642;2024-01-27T10:57:35;17.23;;;4.38;;
23181;SDS011;11759;51.282;6.642;2024-01-27T11:00:04;24.55;;;4.65;;
23181;SDS011;11759;51.282;6.642;2024-01-27T11:02:35;13.10;;;4.50;;
23181;SDS011;11759;51.282;6.642;2024-01-27T11:05:06;24.08;;;5.03;;
23181;SDS011;11759;51.282;6.642;2024-01-27T11:07:34;16.35;;;4.68;;
23181;SDS011;11759;51.282;6.642;2024-01-27T11:10:01;14.45;;;4.50;;
23181;SDS011;11759;51.282;6.642;2024-01-27T11:12:28;17.88;;;4.30;;
23181;SDS011;11759;51.282;6.642;2024-01-27T11:14:55;20.08;;;5.20;;
23181;SDS011;11759;51.282;6.642;2024-01-27T11:17:25;20.25;;;4.50;;
23181;SDS011;11759;51.282;6.642;2024-01-27T11:19:52;20.25;;;5.13;;
23181;SDS011;11759;51.282;6.642;2024-01-27T11:22:26;16.95;;;4.18;;
23181;SDS011;11759;51.282;6.642;2024-01-27T11:27:40;16.90;;;3.95;;
23181;SDS011;11759;51.282;6.642;2024-01-27T11:30:28;15.10;;;4.63;;
23181;SDS011;11759;51.282;6.642;2024-01-27T11:32:56;16.17;;;4.25;;
23181;SDS011;11759;51.282;6.642;2024-01-27T11:35:26;16.70;;;4.40;;
23181;SDS011;11759;51.282;6.642;2024-01-27T11:37:54;18.33;;;4.78;;
23181;SDS011;11759;51.282;6.642;2024-01-27T11:40:21;14.13;;;4.05;;
23181;SDS011;11759;51.282;6.642;2024-01-27T11:42:54;19.10;;;5.03;;
23181;SDS011;11759;51.282;6.642;2024-01-27T11:45:22;15.85;;;4.47;;
23181;SDS011;11759;51.282;6.642;2024-01-27T11:47:49;17.17;;;3.97;;
23181;SDS011;11759;51.282;6.642;2024-01-27T11:50:19;19.60;;;4.50;;
23181;SDS011;11759;51.282;6.642;2024-01-27T11:52:46;17.45;;;4.60;;
23181;SDS011;11759;51.282;6.642;2024-01-27T11:55:13;16.40;;;4.32;;
23181;SDS011;11759;51.282;6.642;2024-01-27T11:57:41;14.95;;;3.95;;
23181;SDS011;11759;51.282;6.642;2024-01-27T12:00:08;15.80;;;4.30;;
23181;SDS011;11759;51.282;6.642;2024-01-27T12:02:38;20.25;;;4.18;;
23181;SDS011;11759;51.282;6.642;2024-01-27T12:05:05;17.83;;;4.50;;
23181;SDS011;11759;51.282;6.642;2024-01-27T12:07:32;17.83;;;4.10;;
23181;SDS011;11759;51.282;6.642;2024-01-27T12:09:59;13.25;;;4.10;;
23181;SDS011;11759;51.282;6.642;2024-01-27T12:12:26;18.27;;;4.78;;
23181;SDS011;11759;51.282;6.642;2024-01-27T12:14:53;15.30;;;4.28;;
23181;SDS011;11759;51.282;6.642;2024-01-27T12:17:22;18.67;;;4.70;;
23181;SDS011;11759;51.282;6.642;2024-01-27T12:19:49;19.27;;;4.00;;
23181;SDS011;11759;51.282;6.642;2024-01-27T12:22:23;16.27;;;4.45;;
23181;SDS011;11759;51.282;6.642;2024-01-27T12:24:54;20.92;;;4.43;;
23181;SDS011;11759;51.282;6.642;2024-01-27T12:27:34;16.27;;;4.43;;
23181;SDS011;11759;51.282;6.642;2024-01-27T12:30:01;23.75;;;4.00;;
23181;SDS011;11759;51.282;6.642;2024-01-27T12:32:29;15.60;;;4.22;;
23181;SDS011;11759;51.282;6.642;2024-01-27T12:34:55;17.50;;;3.97;;
23181;SDS011;11759;51.282;6.642;2024-01-27T12:37:22;12.80;;;3.40;;
23181;SDS011;11759;51.282;6.642;2024-01-27T12:39:49;15.73;;;3.90;;
23181;SDS011;11759;51.282;6.642;2024-01-27T12:42:17;16.95;;;3.58;;
23181;SDS011;11759;51.282;6.642;2024-01-27T12:44:44;23.58;;;4.22;;
23181;SDS011;11759;51.282;6.642;2024-01-27T12:47:10;17.35;;;3.30;;
23181;SDS011;11759;51.282;6.642;2024-01-27T12:49:37;13.35;;;3.72;;
23181;SDS011;11759;51.282;6.642;2024-01-27T12:52:05;15.15;;;3.33;;
23181;SDS011;11759;51.282;6.642;2024-01-27T12:54:32;16.20;;;3.70;;
23181;SDS011;11759;51.282;6.642;2024-01-27T12:56:59;17.98;;;3.15;;
23181;SDS011;11759;51.282;6.642;2024-01-27T12:59:27;14.05;;;3.15;;
23181;SDS011;11759;51.282;6.642;2024-01-27T13:01:55;18.88;;;3.72;;
23181;SDS011;11759;51.282;6.642;2024-01-27T13:04:22;25.98;;;3.22;;
23181;SDS011;11759;51.282;6.642;2024-01-27T13:06:49;11.48;;;3.45;;
23181;SDS011;11759;51.282;6.642;2024-01-27T13:09:17;19.05;;;3.13;;
23181;SDS011;11759;51.282;6.642;2024-01-27T13:11:44;10.88;;;2.75;;
23181;SDS011;11759;51.282;6.642;2024-01-27T13:14:11;16.08;;;3.10;;
23181;SDS011;11759;51.282;6.642;2024-01-27T13:16:39;20.23;;;3.70;;
23181;SDS011;11759;51.282;6.642;2024-01-27T13:19:05;14.82;;;2.95;;
23181;SDS011;11759;51.282;6.642;2024-01-27T13:21:32;12.88;;;2.70;;
23181;SDS011;11759;51.282;6.642;2024-01-27T13:23:59;19.17;;;5.15;;
23181;SDS011;11759;51.282;6.642;2024-01-27T13:26:27;19.38;;;2.60;;
23181;SDS011;11759;51.282;6.642;2024-01-27T13:28:54;15.05;;;3.10;;
23181;SDS011;11759;51.282;6.642;2024-01-27T13:31:21;11.55;;;2.70;;
23181;SDS011;11759;51.282;6.642;2024-01-27T13:33:48;18.23;;;2.92;;
23181;SDS011;11759;51.282;6.642;2024-01-27T13:36:15;12.73;;;2.33;;
23181;SDS011;11759;51.282;6.642;2024-01-27T13:38:43;12.05;;;3.05;;
23181;SDS011;11759;51.282;6.642;2024-01-27T13:41:10;18.65;;;4.10;;
23181;SDS011;11759;51.282;6.642;2024-01-27T13:43:36;9.88;;;2.75;;
23181;SDS011;11759;51.282;6.642;2024-01-27T13:46:03;16.40;;;2.75;;
23181;SDS011;11759;51.282;6.642;2024-01-27T13:48:30;13.30;;;2.63;;
23181;SDS011;11759;51.282;6.642;2024-01-27T13:50:57;11.45;;;2.65;;
23181;SDS011;11759;51.282;6.642;2024-01-27T13:53:24;14.80;;;2.53;;
23181;SDS011;11759;51.282;6.642;2024-01-27T13:56:08;15.07;;;2.67;;
23181;SDS011;11759;51.282;6.642;2024-01-27T13:58:35;12.13;;;2.58;;
23181;SDS011;11759;51.282;6.642;2024-01-27T14:01:01;9.63;;;2.25;;
23181;SDS011;11759;51.282;6.642;2024-01-27T14:03:29;11.40;;;2.95;;
23181;SDS011;11759;51.282;6.642;2024-01-27T14:05:57;17.85;;;2.70;;
23181;SDS011;11759;51.282;6.642;2024-01-27T14:08:23;13.02;;;2.50;;
23181;SDS011;11759;51.282;6.642;2024-01-27T14:10:50;12.18;;;2.70;;
23181;SDS011;11759;51.282;6.642;2024-01-27T14:13:19;14.95;;;2.47;;
23181;SDS011;11759;51.282;6.642;2024-01-27T14:15:45;8.60;;;2.38;;
23181;SDS011;11759;51.282;6.642;2024-01-27T14:18:12;21.52;;;3.35;;
23181;SDS011;11759;51.282;6.642;2024-01-27T14:20:47;11.60;;;2.85;;
23181;SDS011;11759;51.282;6.642;2024-01-27T14:23:14;17.48;;;2.92;;
23181;SDS011;11759;51.282;6.642;2024-01-27T14:25:41;14.10;;;3.17;;
23181;SDS011;11759;51.282;6.642;2024-01-27T14:28:11;12.75;;;2.70;;
23181;SDS011;11759;51.282;6.642;2024-01-27T14:30:39;11.57;;;2.50;;
23181;SDS011;11759;51.282;6.642;2024-01-27T14:33:06;13.00;;;2.50;;
23181;SDS011;11759;51.282;6.642;2024-01-27T14:35:33;13.10;;;2.90;;
23181;SDS011;11759;51.282;6.642;2024-01-27T14:37:59;11.65;;;2.65;;
23181;SDS011;11759;51.282;6.642;2024-01-27T14:40:27;10.05;;;2.40;;